Time;durP1;ratioP1;P1;durP2;ratioP2;P2;SDS_P1;SDS_P2;PMS_P1;PMS_P2;Temp;Humidity;BMP_temperature;BMP_pressure;BME280_temperature;BME280_humidity;BME280_pressure;Samples;Min_cycle;Max_cycle;Signal;HPM_P1;HPM_P2
2022/01/02 00:00:09;;;;;;;5.47;4.10;;;;;;;;;;4994850;28;20207;-82
2022/01/02 00:02:38;;;;;;;3.97;3.67;;;;;;;;;;4986269;28;20224;-81
2022/01/02 00:05:09;;;;;;;5.28;4.78;;;;;;;;;;4985825;28;20207;-82
2022/01/02 00:07:44;;;;;;;5.35;4.60;;;;;;;;;;4995388;28;20584;-82
2022/01/02 00:10:13;;;;;;;5.78;5.25;;;;;;;;;;4995090;28;20200;-82
2022/01/02 00:12:49;;;;;;;6.00;5.40;;;;;;;;;;4995422;28;20235;-82
2022/01/02 00:15:17;;;;;;;5.45;4.95;;;;;;;;;;4994888;28;20226;-82
2022/01/02 00:17:44;;;;;;;6.70;5.82;;;;;;;;;;4995525;28;20250;-82
2022/01/02 00:20:13;;;;;;;5.13;4.43;;;;;;;;;;4995650;28;20188;-82
2022/01/02 00:22:47;;;;;;;5.72;5.05;;;;;;;;;;4995630;28;20223;-82
2022/01/02 00:25:25;;;;;;;6.93;5.15;;;;;;;;;;4996134;28;20184;-82
2022/01/02 00:27:54;;;;;;;5.22;4.65;;;;;;;;;;4995196;28;20199;-81
2022/01/02 00:30:22;;;;;;;7.68;4.80;;;;;;;;;;4994598;28;20704;-82
2022/01/02 00:32:49;;;;;;;6.25;5.65;;;;;;;;;;4995554;28;20228;-82
2022/01/02 00:35:17;;;;;;;4.90;4.43;;;;;;;;;;4995135;28;20234;-82
2022/01/02 00:37:44;;;;;;;5.15;4.65;;;;;;;;;;4995176;28;20199;-82
2022/01/02 00:40:14;;;;;;;6.03;5.40;;;;;;;;;;4994878;28;20187;-82
2022/01/02 00:42:44;;;;;;;5.10;4.57;;;;;;;;;;4995099;28;20710;-82
2022/01/02 00:45:19;;;;;;;6.72;6.05;;;;;;;;;;4995401;28;20188;-82
2022/01/02 00:47:52;;;;;;;4.55;4.10;;;;;;;;;;4995511;28;20657;-82
2022/01/02 00:50:26;;;;;;;4.32;3.92;;;;;;;;;;4995441;28;20240;-82
2022/01/02 00:52:57;;;;;;;5.30;4.70;;;;;;;;;;4995387;28;20740;-82
2022/01/02 00:55:25;;;;;;;10.40;8.45;;;;;;;;;;4995339;28;20230;-82
2022/01/02 00:57:59;;;;;;;7.90;7.10;;;;;;;;;;4995285;28;20211;-82
2022/01/02 01:00:31;;;;;;;6.45;5.68;;;;;;;;;;4995185;28;20188;-82
2022/01/02 01:03:01;;;;;;;6.53;5.63;;;;;;;;;;4994760;28;20246;-82
2022/01/02 01:05:31;;;;;;;5.68;5.07;;;;;;;;;;4994668;28;20194;-82
2022/01/02 01:08:04;;;;;;;7.80;6.53;;;;;;;;;;4995282;28;20196;-82
2022/01/02 01:10:36;;;;;;;8.27;7.47;;;;;;;;;;4995894;28;20188;-82
2022/01/02 01:13:09;;;;;;;6.28;5.68;;;;;;;;;;4995326;28;20233;-82
2022/01/02 01:15:38;;;;;;;5.03;4.63;;;;;;;;;;4999222;28;20207;-82
2022/01/02 01:18:06;;;;;;;6.75;6.07;;;;;;;;;;4999543;28;20615;-82
2022/01/02 01:20:38;;;;;;;9.13;7.15;;;;;;;;;;4999777;28;20188;-82
2022/01/02 01:23:06;;;;;;;10.50;7.07;;;;;;;;;;4999315;28;20224;-82
2022/01/02 01:25:36;;;;;;;9.18;7.68;;;;;;;;;;4998926;28;20203;-82
2022/01/02 01:28:03;;;;;;;10.52;8.73;;;;;;;;;;4999136;28;20195;-82
2022/01/02 01:30:31;;;;;;;9.20;7.78;;;;;;;;;;4999601;28;20191;-82
2022/01/02 01:33:00;;;;;;;6.97;6.15;;;;;;;;;;4998639;28;20223;-82
2022/01/02 01:35:27;;;;;;;10.82;9.65;;;;;;;;;;4998876;28;20591;-82
2022/01/02 01:37:54;;;;;;;10.93;8.52;;;;;;;;;;4998527;28;20211;-82
2022/01/02 01:40:23;;;;;;;12.65;8.93;;;;;;;;;;4998626;28;20216;-82
2022/01/02 01:43:00;;;;;;;11.93;7.93;;;;;;;;;;4998754;28;20266;-82
2022/01/02 01:45:32;;;;;;;8.02;7.18;;;;;;;;;;4998363;28;20676;-82
2022/01/02 01:48:03;;;;;;;9.00;7.03;;;;;;;;;;4998954;28;20294;-82
2022/01/02 01:50:33;;;;;;;9.02;8.10;;;;;;;;;;4999134;28;20532;-82
2022/01/02 01:53:01;;;;;;;9.27;6.28;;;;;;;;;;4998912;28;20220;-82
2022/01/02 01:55:28;;;;;;;7.03;5.72;;;;;;;;;;4998220;28;20223;-82
2022/01/02 01:57:56;;;;;;;7.22;6.53;;;;;;;;;;4998711;28;20191;-82
2022/01/02 02:00:24;;;;;;;8.60;6.50;;;;;;;;;;4999301;28;20191;-82
2022/01/02 02:02:52;;;;;;;5.82;5.22;;;;;;;;;;4998108;28;20224;-82
2022/01/02 02:05:20;;;;;;;6.35;5.72;;;;;;;;;;4998120;28;20347;-82
2022/01/02 02:07:48;;;;;;;8.50;7.30;;;;;;;;;;4998059;28;20203;-82
2022/01/02 02:10:23;;;;;;;8.10;6.93;;;;;;;;;;4998385;28;20218;-82
2022/01/02 02:12:53;;;;;;;8.82;6.80;;;;;;;;;;4998683;28;20227;-83
2022/01/02 02:15:21;;;;;;;9.27;8.32;;;;;;;;;;4998708;28;20238;-82
2022/01/02 02:17:50;;;;;;;8.73;7.50;;;;;;;;;;4998333;28;20235;-82
2022/01/02 02:20:21;;;;;;;7.47;6.72;;;;;;;;;;4998147;28;20286;-82
2022/01/02 02:22:52;;;;;;;7.53;6.72;;;;;;;;;;4998328;28;20228;-82
2022/01/02 02:25:22;;;;;;;8.43;6.70;;;;;;;;;;4997426;28;20242;-82
2022/01/02 02:27:51;;;;;;;11.38;7.68;;;;;;;;;;4997936;28;20558;-82
2022/01/02 02:30:19;;;;;;;7.25;6.45;;;;;;;;;;4996752;28;20200;-82
2022/01/02 02:32:47;;;;;;;6.55;5.85;;;;;;;;;;4998024;28;20238;-82
2022/01/02 02:35:15;;;;;;;10.35;7.45;;;;;;;;;;4997107;28;20733;-82
2022/01/02 02:37:46;;;;;;;12.27;7.82;;;;;;;;;;4998159;28;20195;-82
2022/01/02 02:40:16;;;;;;;8.82;7.75;;;;;;;;;;4997823;28;20564;-82
2022/01/02 02:42:49;;;;;;;11.88;7.00;;;;;;;;;;4998015;28;20227;-82
2022/01/02 02:51:05;;;;;;;5.68;5.05;;;;;;;;;;4997728;28;20262;-82
2022/01/02 02:53:35;;;;;;;4.50;4.10;;;;;;;;;;4997080;28;20227;-82
2022/01/02 02:56:12;;;;;;;7.82;6.03;;;;;;;;;;4997548;28;20314;-82
2022/01/02 02:58:41;;;;;;;6.82;4.70;;;;;;;;;;4998445;28;20203;-82
2022/01/02 03:01:10;;;;;;;10.20;7.07;;;;;;;;;;4997728;28;20258;-83
2022/01/02 03:03:38;;;;;;;7.93;7.07;;;;;;;;;;4997447;28;20219;-82
2022/01/02 03:06:06;;;;;;;7.00;6.20;;;;;;;;;;4998047;28;20554;-83
2022/01/02 03:08:37;;;;;;;7.10;5.90;;;;;;;;;;4997213;28;20200;-82
2022/01/02 03:11:08;;;;;;;5.75;5.03;;;;;;;;;;4997039;28;20208;-82
2022/01/02 03:13:36;;;;;;;7.43;4.85;;;;;;;;;;4996965;28;20223;-82
2022/01/02 03:16:04;;;;;;;4.57;3.90;;;;;;;;;;4997130;28;20214;-82
2022/01/02 03:18:31;;;;;;;5.32;4.75;;;;;;;;;;4996900;28;20235;-83
2022/01/02 03:20:59;;;;;;;5.80;5.20;;;;;;;;;;4997420;28;20230;-81
2022/01/02 03:23:26;;;;;;;4.97;4.47;;;;;;;;;;4997180;28;20230;-81
2022/01/02 03:25:56;;;;;;;6.88;6.13;;;;;;;;;;4996772;28;20215;-82
2022/01/02 03:28:24;;;;;;;5.72;4.82;;;;;;;;;;4997128;28;20188;-82
2022/01/02 03:30:51;;;;;;;4.45;3.67;;;;;;;;;;4996816;28;20191;-82
2022/01/02 03:33:19;;;;;;;4.43;3.88;;;;;;;;;;4996997;28;20216;-82
2022/01/02 03:35:48;;;;;;;5.82;4.70;;;;;;;;;;4995927;28;20236;-82
2022/01/02 03:38:16;;;;;;;4.10;3.70;;;;;;;;;;4995616;28;20207;-82
2022/01/02 03:40:44;;;;;;;5.60;4.25;;;;;;;;;;4997049;28;20195;-82
2022/01/02 03:43:12;;;;;;;4.80;4.40;;;;;;;;;;4995900;28;20226;-82
2022/01/02 03:45:40;;;;;;;4.15;3.75;;;;;;;;;;4995754;28;20187;-82
2022/01/02 03:48:07;;;;;;;6.93;4.53;;;;;;;;;;4996683;28;20207;-81
2022/01/02 03:50:35;;;;;;;5.15;4.30;;;;;;;;;;4996378;28;20550;-82
2022/01/02 03:53:02;;;;;;;5.85;5.30;;;;;;;;;;4996414;28;20717;-82
2022/01/02 03:55:30;;;;;;;7.88;6.15;;;;;;;;;;4996782;28;20188;-82
2022/01/02 03:57:57;;;;;;;9.05;6.75;;;;;;;;;;4995788;28;20184;-82
2022/01/02 04:00:26;;;;;;;7.90;6.53;;;;;;;;;;4996241;28;20213;-82
2022/01/02 04:02:54;;;;;;;8.25;6.40;;;;;;;;;;4996153;28;20227;-82
2022/01/02 04:05:21;;;;;;;7.28;6.10;;;;;;;;;;4996351;28;20199;-81
2022/01/02 04:07:48;;;;;;;8.52;6.35;;;;;;;;;;4996125;28;20666;-82
2022/01/02 04:10:19;;;;;;;9.00;6.50;;;;;;;;;;4996064;28;20184;-82
2022/01/02 04:12:47;;;;;;;9.00;6.88;;;;;;;;;;4996523;28;20226;-82
2022/01/02 04:15:16;;;;;;;6.97;6.25;;;;;;;;;;4995923;28;20212;-81
2022/01/02 04:17:45;;;;;;;7.97;5.93;;;;;;;;;;4995882;28;20241;-82
2022/01/02 04:20:15;;;;;;;6.55;4.95;;;;;;;;;;4996394;28;20199;-81
2022/01/02 04:22:44;;;;;;;5.13;4.45;;;;;;;;;;4996031;28;20228;-82
2022/01/02 04:25:12;;;;;;;6.82;5.57;;;;;;;;;;4995897;28;20642;-82
2022/01/02 04:27:40;;;;;;;4.82;4.43;;;;;;;;;;4995780;28;20199;-82
2022/01/02 04:30:12;;;;;;;5.43;4.03;;;;;;;;;;4995936;28;20197;-81
2022/01/02 04:32:40;;;;;;;5.78;4.65;;;;;;;;;;4994955;28;20219;-81
2022/01/02 04:35:10;;;;;;;4.72;4.32;;;;;;;;;;4995279;28;20214;-81
2022/01/02 04:37:38;;;;;;;4.65;3.63;;;;;;;;;;4994703;28;20219;-82
2022/01/02 04:40:07;;;;;;;3.75;3.35;;;;;;;;;;4995071;28;20187;-81
2022/01/02 04:42:34;;;;;;;4.45;4.05;;;;;;;;;;4995429;28;20302;-81
2022/01/02 04:45:02;;;;;;;3.63;3.33;;;;;;;;;;4995410;28;20180;-81
2022/01/02 04:47:29;;;;;;;3.92;3.38;;;;;;;;;;4994917;28;20658;-82
2022/01/02 04:49:57;;;;;;;4.82;3.80;;;;;;;;;;4994229;28;20206;-82
2022/01/02 04:52:26;;;;;;;3.70;3.40;;;;;;;;;;4995228;28;20211;-82
2022/01/02 04:54:53;;;;;;;5.50;4.57;;;;;;;;;;4995014;28;20206;-81
2022/01/02 04:57:20;;;;;;;7.10;5.28;;;;;;;;;;4994790;28;20223;-82
2022/01/02 04:59:48;;;;;;;6.63;5.22;;;;;;;;;;4995392;28;20714;-82
2022/01/02 05:02:15;;;;;;;5.47;4.97;;;;;;;;;;4995189;28;20194;-82
2022/01/02 05:04:43;;;;;;;5.40;4.53;;;;;;;;;;4994382;28;20219;-82
2022/01/02 05:07:12;;;;;;;6.13;5.53;;;;;;;;;;4995198;28;20200;-82
2022/01/02 05:09:41;;;;;;;5.63;5.03;;;;;;;;;;4995059;28;20315;-82
2022/01/02 05:12:09;;;;;;;6.18;5.15;;;;;;;;;;4995595;28;20258;-81
2022/01/02 05:14:37;;;;;;;7.13;6.40;;;;;;;;;;4994909;28;20195;-82
2022/01/02 05:17:04;;;;;;;8.00;7.05;;;;;;;;;;4995096;28;20771;-82
2022/01/02 05:19:32;;;;;;;7.97;6.30;;;;;;;;;;4994622;28;20237;-82
2022/01/02 05:22:00;;;;;;;7.97;5.50;;;;;;;;;;4994931;28;20643;-82
2022/01/02 05:24:27;;;;;;;7.10;5.55;;;;;;;;;;4994839;28;20226;-82
2022/01/02 05:26:56;;;;;;;4.57;4.18;;;;;;;;;;4995163;28;20191;-81
2022/01/02 05:29:24;;;;;;;5.05;4.10;;;;;;;;;;4995093;28;20823;-82
2022/01/02 05:31:52;;;;;;;4.13;3.83;;;;;;;;;;4994871;28;20192;-82
2022/01/02 05:34:19;;;;;;;5.22;4.60;;;;;;;;;;4994729;28;20216;-82
2022/01/02 05:36:49;;;;;;;6.25;5.65;;;;;;;;;;4994877;28;20223;-82
2022/01/02 05:39:18;;;;;;;5.72;5.18;;;;;;;;;;4995128;28;20184;-82
2022/01/02 05:41:46;;;;;;;7.15;6.43;;;;;;;;;;4995237;28;20196;-82
2022/01/02 05:44:15;;;;;;;7.10;6.40;;;;;;;;;;4994898;28;20836;-82
2022/01/02 05:46:44;;;;;;;8.13;7.25;;;;;;;;;;4994712;28;20199;-82
2022/01/02 05:49:12;;;;;;;7.57;6.53;;;;;;;;;;4995153;28;20188;-84
2022/01/02 05:51:39;;;;;;;9.75;8.50;;;;;;;;;;4994872;28;20208;-83
2022/01/02 05:54:07;;;;;;;8.20;7.35;;;;;;;;;;4994553;28;20705;-83
2022/01/02 05:56:35;;;;;;;6.70;6.10;;;;;;;;;;4994498;28;20568;-83
2022/01/02 05:59:02;;;;;;;9.10;8.05;;;;;;;;;;4994754;28;20716;-83
2022/01/02 06:01:31;;;;;;;9.10;8.18;;;;;;;;;;4997742;28;20666;-83
2022/01/02 06:03:59;;;;;;;6.53;5.78;;;;;;;;;;4998655;28;20234;-83
2022/01/02 06:06:26;;;;;;;6.35;5.75;;;;;;;;;;4999063;28;20208;-82
2022/01/02 06:08:54;;;;;;;6.13;5.55;;;;;;;;;;4999166;28;20756;-83
2022/01/02 06:11:21;;;;;;;5.30;4.90;;;;;;;;;;4999202;28;20561;-83
2022/01/02 06:13:48;;;;;;;4.88;4.38;;;;;;;;;;4998815;28;20230;-83
2022/01/02 06:16:16;;;;;;;8.52;6.25;;;;;;;;;;4998604;28;20204;-82
2022/01/02 06:18:44;;;;;;;7.88;6.40;;;;;;;;;;4998011;28;20238;-83
2022/01/02 06:21:12;;;;;;;6.68;5.43;;;;;;;;;;4999256;28;20211;-83
2022/01/02 06:23:39;;;;;;;5.50;4.95;;;;;;;;;;4999176;28;20220;-83
2022/01/02 06:26:07;;;;;;;4.82;4.25;;;;;;;;;;4998677;28;20214;-83
2022/01/02 06:28:34;;;;;;;6.15;4.55;;;;;;;;;;4999659;28;20208;-83
2022/01/02 06:31:01;;;;;;;6.82;5.68;;;;;;;;;;4997899;28;20666;-83
2022/01/02 06:33:29;;;;;;;6.65;6.00;;;;;;;;;;4998904;28;20232;-83
2022/01/02 06:35:57;;;;;;;9.82;7.50;;;;;;;;;;4998831;28;20231;-83
2022/01/02 06:38:25;;;;;;;9.48;8.07;;;;;;;;;;4998669;28;20234;-82
2022/01/02 06:40:52;;;;;;;9.98;8.25;;;;;;;;;;4999031;28;20195;-82
2022/01/02 06:43:20;;;;;;;9.20;7.95;;;;;;;;;;4998587;28;20223;-82
2022/01/02 06:45:48;;;;;;;8.85;7.93;;;;;;;;;;4997379;28;20891;-82
2022/01/02 06:48:16;;;;;;;9.50;7.88;;;;;;;;;;4996087;28;20203;-82
2022/01/02 06:50:43;;;;;;;9.18;8.15;;;;;;;;;;4985424;28;20196;-83
2022/01/02 06:53:12;;;;;;;8.25;6.82;;;;;;;;;;4978197;28;20235;-82
2022/01/02 06:55:39;;;;;;;7.80;7.10;;;;;;;;;;4990463;28;20204;-83
2022/01/02 06:58:07;;;;;;;6.90;6.25;;;;;;;;;;4986235;28;20224;-82
2022/01/02 07:00:34;;;;;;;9.95;8.13;;;;;;;;;;4995009;28;20207;-82
2022/01/02 07:03:02;;;;;;;8.85;7.70;;;;;;;;;;4997370;28;20227;-82
2022/01/02 07:05:29;;;;;;;7.82;7.05;;;;;;;;;;4997231;28;20200;-82
2022/01/02 07:07:57;;;;;;;8.93;7.85;;;;;;;;;;4977990;28;20663;-82
2022/01/02 07:10:26;;;;;;;10.60;9.60;;;;;;;;;;4997131;28;20192;-82
2022/01/02 07:12:53;;;;;;;8.57;7.72;;;;;;;;;;4995883;28;20212;-83
2022/01/02 07:15:23;;;;;;;9.57;8.23;;;;;;;;;;4997949;28;20200;-82
2022/01/02 07:17:51;;;;;;;12.35;9.75;;;;;;;;;;4997129;28;20232;-82
2022/01/02 07:20:18;;;;;;;9.50;8.23;;;;;;;;;;4998002;28;20204;-83
2022/01/02 07:22:47;;;;;;;7.60;6.90;;;;;;;;;;4998076;28;20351;-83
2022/01/02 07:25:15;;;;;;;6.50;5.82;;;;;;;;;;4997847;28;20554;-82
2022/01/02 07:27:44;;;;;;;5.80;5.20;;;;;;;;;;4997339;28;20673;-82
2022/01/02 07:30:12;;;;;;;5.72;5.10;;;;;;;;;;4997922;28;20204;-82
2022/01/02 07:32:39;;;;;;;8.00;5.05;;;;;;;;;;4997767;28;20219;-82
2022/01/02 07:35:09;;;;;;;8.43;5.53;;;;;;;;;;4997057;28;20192;-83
2022/01/02 07:37:36;;;;;;;8.20;7.35;;;;;;;;;;4980612;28;20196;-82
2022/01/02 07:40:05;;;;;;;9.13;7.38;;;;;;;;;;4997502;28;20721;-81
2022/01/02 07:42:33;;;;;;;12.38;8.93;;;;;;;;;;4997234;28;20223;-82
2022/01/02 07:45:01;;;;;;;10.20;9.20;;;;;;;;;;4996917;28;20234;-82
2022/01/02 07:47:29;;;;;;;12.70;11.45;;;;;;;;;;4996488;28;20209;-82
2022/01/02 07:49:56;;;;;;;9.40;8.38;;;;;;;;;;4995453;28;20199;-82
2022/01/02 07:52:24;;;;;;;10.07;8.23;;;;;;;;;;4995420;28;20195;-81
2022/01/02 07:54:51;;;;;;;9.40;7.45;;;;;;;;;;4995916;28;20188;-81
2022/01/02 07:57:19;;;;;;;7.10;5.50;;;;;;;;;;4998134;28;20215;-82
2022/01/02 07:59:47;;;;;;;5.82;5.32;;;;;;;;;;4997827;28;20254;-82
2022/01/02 08:02:16;;;;;;;6.35;5.68;;;;;;;;;;4998219;28;20203;-82
2022/01/02 08:04:43;;;;;;;6.15;5.45;;;;;;;;;;4997372;28;20218;-82
2022/01/02 08:07:10;;;;;;;6.43;5.43;;;;;;;;;;4998307;28;20198;-83
2022/01/02 08:09:38;;;;;;;4.90;4.40;;;;;;;;;;4998133;28;20192;-82
2022/01/02 08:12:06;;;;;;;6.07;5.47;;;;;;;;;;4999136;28;20206;-83
2022/01/02 08:14:34;;;;;;;6.22;5.63;;;;;;;;;;4991214;28;20224;-83
2022/01/02 08:17:01;;;;;;;4.65;4.15;;;;;;;;;;4997779;28;20222;-82
2022/01/02 08:19:30;;;;;;;5.55;4.60;;;;;;;;;;4995864;28;20704;-82
2022/01/02 08:21:57;;;;;;;6.93;5.13;;;;;;;;;;4997593;28;20215;-82
2022/01/02 08:24:25;;;;;;;4.65;4.20;;;;;;;;;;4997043;28;20230;-82
2022/01/02 08:26:52;;;;;;;5.13;4.53;;;;;;;;;;4996641;28;20196;-82
2022/01/02 08:29:20;;;;;;;6.03;4.70;;;;;;;;;;4997705;28;20191;-82
2022/01/02 08:31:47;;;;;;;10.23;4.65;;;;;;;;;;4997166;28;20203;-82
2022/01/02 08:34:15;;;;;;;6.75;5.20;;;;;;;;;;4996681;28;20223;-82
2022/01/02 08:36:44;;;;;;;5.80;5.07;;;;;;;;;;4995724;28;20670;-82
2022/01/02 08:39:11;;;;;;;4.38;4.00;;;;;;;;;;4995406;28;20219;-83
2022/01/02 08:41:38;;;;;;;5.60;4.88;;;;;;;;;;4995777;28;20206;-83
2022/01/02 08:44:06;;;;;;;5.05;4.55;;;;;;;;;;4995735;28;20228;-83
2022/01/02 08:46:34;;;;;;;4.95;4.45;;;;;;;;;;4995215;28;20285;-83
2022/01/02 08:49:03;;;;;;;4.10;3.70;;;;;;;;;;4994791;28;20192;-83
2022/01/02 08:51:31;;;;;;;3.85;3.55;;;;;;;;;;4995968;28;20188;-83
2022/01/02 08:53:59;;;;;;;4.30;3.90;;;;;;;;;;4996748;28;20579;-82
2022/01/02 08:56:27;;;;;;;3.45;3.20;;;;;;;;;;4995239;28;20204;-83
2022/01/02 08:58:54;;;;;;;3.30;2.80;;;;;;;;;;4996425;28;20215;-83
2022/01/02 09:01:21;;;;;;;3.55;3.25;;;;;;;;;;4995610;28;20196;-83
2022/01/02 09:03:49;;;;;;;4.05;3.38;;;;;;;;;;4995793;28;20223;-83
2022/01/02 09:06:16;;;;;;;4.43;3.30;;;;;;;;;;4995327;28;20202;-83
2022/01/02 09:08:44;;;;;;;4.05;3.33;;;;;;;;;;4996247;28;20200;-83
2022/01/02 09:11:12;;;;;;;4.38;3.58;;;;;;;;;;4997272;28;20202;-83
2022/01/02 09:13:40;;;;;;;3.35;3.05;;;;;;;;;;4996629;28;20224;-82
2022/01/02 09:16:07;;;;;;;3.30;3.00;;;;;;;;;;4997146;28;20208;-82
2022/01/02 09:18:35;;;;;;;3.38;3.08;;;;;;;;;;4996042;28;20242;-82
2022/01/02 09:21:02;;;;;;;4.00;3.60;;;;;;;;;;4996763;28;20219;-84
2022/01/02 09:23:30;;;;;;;5.00;3.67;;;;;;;;;;4977631;28;20220;-82
2022/01/02 09:25:57;;;;;;;4.38;3.97;;;;;;;;;;4987573;28;20604;-82
2022/01/02 09:28:26;;;;;;;3.97;3.45;;;;;;;;;;4996324;28;20203;-82
2022/01/02 09:30:54;;;;;;;4.38;3.60;;;;;;;;;;4997426;28;20218;-83
2022/01/02 09:33:22;;;;;;;4.03;3.65;;;;;;;;;;4996233;28;20226;-82
2022/01/02 09:35:49;;;;;;;3.80;3.35;;;;;;;;;;4996590;28;20203;-82
2022/01/02 09:38:17;;;;;;;3.85;3.50;;;;;;;;;;4999865;28;20213;-82
2022/01/02 09:40:44;;;;;;;4.18;3.80;;;;;;;;;;4999135;28;20558;-82
2022/01/02 09:43:12;;;;;;;7.95;5.13;;;;;;;;;;4998181;28;20342;-82
2022/01/02 09:45:41;;;;;;;4.70;4.32;;;;;;;;;;4998829;28;20199;-82
2022/01/02 09:48:09;;;;;;;5.32;4.32;;;;;;;;;;4998623;28;20191;-82
2022/01/02 09:50:39;;;;;;;6.07;5.45;;;;;;;;;;4998433;28;20210;-82
2022/01/02 09:53:07;;;;;;;5.22;4.72;;;;;;;;;;4998342;28;20705;-83
2022/01/02 09:55:35;;;;;;;4.68;4.28;;;;;;;;;;4999204;28;20579;-82
2022/01/02 09:58:09;;;;;;;5.35;4.63;;;;;;;;;;4997853;28;20199;-82
2022/01/02 10:00:37;;;;;;;4.38;3.97;;;;;;;;;;4998443;28;20218;-83
2022/01/02 10:03:09;;;;;;;5.10;4.18;;;;;;;;;;4995911;28;20224;-83
2022/01/02 10:05:52;;;;;;;7.07;6.43;;;;;;;;;;4983036;28;20189;-84
2022/01/02 10:08:51;;;;;;;6.00;5.40;;;;;;;;;;4999366;28;20214;-84
2022/01/02 10:11:50;;;;;;;4.47;4.07;;;;;;;;;;5002588;28;20271;-83
2022/01/02 10:14:25;;;;;;;5.05;4.50;;;;;;;;;;4921638;29;20775;-83
2022/01/02 10:17:00;;;;;;;4.43;3.70;;;;;;;;;;4922262;29;20194;-83
2022/01/02 10:19:50;;;;;;;4.32;3.85;;;;;;;;;;4921559;29;20296;-83
2022/01/02 10:22:26;;;;;;;4.93;4.43;;;;;;;;;;4920904;29;20198;-83
2022/01/02 10:34:39;;;;;;;4.93;4.05;;;;;;;;;;4953287;28;20237;-83
2022/01/02 10:37:08;;;;;;;6.78;5.13;;;;;;;;;;4999392;28;20187;-82
2022/01/02 10:39:36;;;;;;;4.35;3.95;;;;;;;;;;4999075;28;20211;-82
2022/01/02 10:42:17;;;;;;;4.97;4.45;;;;;;;;;;4998924;28;20570;-83
2022/01/02 10:44:44;;;;;;;6.05;4.20;;;;;;;;;;5000435;28;20188;-82
2022/01/02 10:47:16;;;;;;;4.15;3.75;;;;;;;;;;4998453;28;20192;-83
2022/01/02 10:49:54;;;;;;;3.50;3.20;;;;;;;;;;4998534;28;20192;-83
2022/01/02 10:52:27;;;;;;;4.30;3.90;;;;;;;;;;4999784;28;20184;-83
2022/01/02 10:54:56;;;;;;;3.15;2.85;;;;;;;;;;5000697;28;20581;-83
2022/01/02 10:57:24;;;;;;;5.07;3.42;;;;;;;;;;4999180;28;20196;-82
2022/01/02 10:59:52;;;;;;;3.80;3.40;;;;;;;;;;4998155;28;20243;-83
2022/01/02 11:02:19;;;;;;;3.72;3.38;;;;;;;;;;4997396;28;20203;-83
2022/01/02 11:04:50;;;;;;;3.38;3.08;;;;;;;;;;4997811;28;20195;-83
2022/01/02 11:07:24;;;;;;;3.67;3.38;;;;;;;;;;5000947;28;20200;-82
2022/01/02 11:09:55;;;;;;;3.15;2.85;;;;;;;;;;5000657;28;20183;-83
2022/01/02 11:12:23;;;;;;;3.92;3.22;;;;;;;;;;4999198;28;20206;-83
2022/01/02 11:14:53;;;;;;;4.38;3.97;;;;;;;;;;5000015;28;20184;-82
2022/01/02 11:17:21;;;;;;;3.45;3.15;;;;;;;;;;5000827;28;20272;-83
2022/01/02 11:19:49;;;;;;;5.65;3.78;;;;;;;;;;5000715;28;20220;-82
2022/01/02 11:22:25;;;;;;;3.22;2.88;;;;;;;;;;5001805;28;20680;-82
2022/01/02 11:25:00;;;;;;;3.88;3.45;;;;;;;;;;4982196;28;20181;-83
2022/01/02 11:27:35;;;;;;;4.13;3.72;;;;;;;;;;4999720;28;20195;-83
2022/01/02 11:30:37;;;;;;;4.45;3.65;;;;;;;;;;4999461;28;20245;-82
2022/01/02 11:33:07;;;;;;;3.33;3.03;;;;;;;;;;4998617;28;20731;-84
2022/01/02 11:35:35;;;;;;;3.60;3.33;;;;;;;;;;5002414;28;20223;-83
2022/01/02 11:38:06;;;;;;;4.25;3.78;;;;;;;;;;4999089;28;20566;-83
2022/01/02 11:40:49;;;;;;;4.18;3.78;;;;;;;;;;5001627;28;20279;-83
2022/01/02 11:43:55;;;;;;;3.97;3.05;;;;;;;;;;5001039;28;20243;-83
2022/01/02 11:46:29;;;;;;;3.75;3.28;;;;;;;;;;5000176;28;20192;-84
2022/01/02 11:49:28;;;;;;;4.93;4.28;;;;;;;;;;5000531;28;20215;-82
2022/01/02 11:52:12;;;;;;;4.05;3.47;;;;;;;;;;5000358;28;20203;-83
2022/01/02 11:54:55;;;;;;;4.75;3.75;;;;;;;;;;5001464;28;20207;-83
2022/01/02 11:57:50;;;;;;;3.10;2.90;;;;;;;;;;4992839;28;20196;-84
2022/01/02 12:00:44;;;;;;;4.97;4.47;;;;;;;;;;4989944;28;20192;-83
2022/01/02 12:03:49;;;;;;;3.85;3.55;;;;;;;;;;4999049;28;20234;-82
2022/01/02 12:06:33;;;;;;;5.07;4.38;;;;;;;;;;4977874;28;20219;-83
2022/01/02 12:09:02;;;;;;;4.82;4.35;;;;;;;;;;4979049;28;20189;-83
2022/01/02 12:11:45;;;;;;;5.85;3.83;;;;;;;;;;4997196;28;20184;-83
2022/01/02 12:14:20;;;;;;;4.13;3.72;;;;;;;;;;4996998;28;20216;-82
2022/01/02 12:17:07;;;;;;;3.65;3.35;;;;;;;;;;4997371;28;20183;-82
2022/01/02 12:20:00;;;;;;;3.45;3.20;;;;;;;;;;4983338;28;20227;-83
2022/01/02 12:22:43;;;;;;;5.15;4.25;;;;;;;;;;4997122;28;20227;-83
2022/01/02 12:25:20;;;;;;;4.05;3.55;;;;;;;;;;4998022;28;20702;-83
2022/01/02 12:27:56;;;;;;;5.15;3.95;;;;;;;;;;4997431;28;20195;-83
2022/01/02 12:30:24;;;;;;;4.63;3.67;;;;;;;;;;4998511;28;20187;-84
2022/01/02 12:32:52;;;;;;;3.90;3.45;;;;;;;;;;4997974;28;20235;-82
2022/01/02 12:35:19;;;;;;;3.60;3.30;;;;;;;;;;4998093;28;20209;-83
2022/01/02 12:38:14;;;;;;;3.53;3.22;;;;;;;;;;4997601;28;20207;-85
2022/01/02 12:40:41;;;;;;;3.75;3.45;;;;;;;;;;4899861;28;20199;-84
2022/01/02 12:43:10;;;;;;;4.32;3.50;;;;;;;;;;4985263;28;20216;-83
2022/01/02 12:45:39;;;;;;;3.63;3.28;;;;;;;;;;4997442;28;20199;-84
2022/01/02 12:48:07;;;;;;;4.63;3.78;;;;;;;;;;4997387;28;20208;-83
2022/01/02 12:50:36;;;;;;;2.72;2.53;;;;;;;;;;4997520;28;20203;-84
2022/01/02 12:53:05;;;;;;;3.65;2.80;;;;;;;;;;4996248;28;20223;-83
2022/01/02 12:55:33;;;;;;;3.30;3.00;;;;;;;;;;4998205;28;20208;-84
2022/01/02 12:58:05;;;;;;;3.33;2.88;;;;;;;;;;4986259;28;20199;-83
2022/01/02 13:00:34;;;;;;;2.70;2.50;;;;;;;;;;4978738;28;20192;-84
2022/01/02 13:03:02;;;;;;;3.20;2.95;;;;;;;;;;4977589;28;20232;-86
2022/01/02 13:05:29;;;;;;;3.60;3.30;;;;;;;;;;4977613;28;20214;-86
2022/01/02 13:08:01;;;;;;;3.75;3.33;;;;;;;;;;4988919;28;20187;-83
2022/01/02 13:10:29;;;;;;;3.63;3.30;;;;;;;;;;4998484;28;20255;-84
2022/01/02 13:12:56;;;;;;;3.95;2.90;;;;;;;;;;4986833;28;20226;-84
2022/01/02 13:15:24;;;;;;;2.90;2.70;;;;;;;;;;5000375;28;20208;-83
2022/01/02 13:17:56;;;;;;;4.38;3.17;;;;;;;;;;4990635;28;20326;-82
2022/01/02 13:20:39;;;;;;;3.38;3.08;;;;;;;;;;4996924;28;20188;-82
2022/01/02 13:23:08;;;;;;;3.30;3.00;;;;;;;;;;4985052;28;20236;-84
2022/01/02 13:25:40;;;;;;;3.45;3.15;;;;;;;;;;5001742;28;20199;-83
2022/01/02 13:28:10;;;;;;;3.22;2.92;;;;;;;;;;5000912;28;20195;-83
2022/01/02 13:30:48;;;;;;;3.22;2.85;;;;;;;;;;5001233;28;20199;-83
2022/01/02 13:33:24;;;;;;;2.75;2.55;;;;;;;;;;4984952;28;20220;-84
2022/01/02 13:35:55;;;;;;;3.65;3.35;;;;;;;;;;4981169;28;20212;-82
2022/01/02 13:38:24;;;;;;;2.92;2.72;;;;;;;;;;4995877;28;20200;-83
2022/01/02 13:40:52;;;;;;;3.20;2.38;;;;;;;;;;5000225;28;20191;-83
2022/01/02 13:43:21;;;;;;;3.20;2.90;;;;;;;;;;5000714;28;20231;-82
2022/01/02 13:45:49;;;;;;;2.83;2.63;;;;;;;;;;5000923;28;20219;-83
2022/01/02 13:48:21;;;;;;;2.40;2.20;;;;;;;;;;5000539;28;20204;-83
2022/01/02 13:50:52;;;;;;;3.42;2.30;;;;;;;;;;5000389;28;20725;-83
2022/01/02 13:53:23;;;;;;;3.22;2.40;;;;;;;;;;5001014;28;20226;-84
2022/01/02 13:55:53;;;;;;;2.60;2.40;;;;;;;;;;5001596;28;20184;-84
2022/01/02 13:58:24;;;;;;;2.50;2.30;;;;;;;;;;4986822;28;20662;-84
2022/01/02 14:00:53;;;;;;;2.40;2.20;;;;;;;;;;5000315;28;20196;-83
2022/01/02 14:03:36;;;;;;;4.78;2.40;;;;;;;;;;5000811;28;20228;-83
2022/01/02 14:06:05;;;;;;;5.00;2.70;;;;;;;;;;5000774;28;20210;-84
2022/01/02 14:35:22;;;;;;;3.15;2.13;;;;;;;;;;6019056;23;20202;-82
2022/01/02 14:37:49;;;;;;;2.75;2.50;;;;;;;;;;4988161;28;20693;-83
2022/01/02 14:40:17;;;;;;;4.70;3.15;;;;;;;;;;4986482;28;20771;-82
2022/01/02 14:42:45;;;;;;;4.45;3.28;;;;;;;;;;4987280;28;20241;-83
2022/01/02 14:45:13;;;;;;;2.97;2.70;;;;;;;;;;4987691;28;20211;-82
2022/01/02 14:47:42;;;;;;;2.80;2.60;;;;;;;;;;4988840;28;20403;-83
2022/01/02 14:50:15;;;;;;;2.03;1.92;;;;;;;;;;4988760;28;20196;-83
2022/01/02 14:52:46;;;;;;;2.00;1.90;;;;;;;;;;4989048;28;20295;-83
2022/01/02 14:55:18;;;;;;;2.03;1.80;;;;;;;;;;4988490;28;20200;-82
2022/01/02 14:57:49;;;;;;;3.90;3.05;;;;;;;;;;4989302;28;20650;-82
2022/01/02 15:00:20;;;;;;;2.65;2.45;;;;;;;;;;4984204;28;20213;-83
2022/01/02 15:18:16;;;;;;;3.10;2.80;;;;;;;;;;4936763;29;20206;-84
2022/01/02 15:20:44;;;;;;;2.78;2.50;;;;;;;;;;4937738;29;20201;-83
2022/01/02 15:23:11;;;;;;;4.32;3.85;;;;;;;;;;4939165;29;20230;-82
2022/01/02 15:25:39;;;;;;;3.30;3.00;;;;;;;;;;4939612;29;20680;-84
2022/01/02 15:28:06;;;;;;;3.50;3.17;;;;;;;;;;4938925;29;20194;-83
2022/01/02 15:30:34;;;;;;;2.92;2.63;;;;;;;;;;4938541;29;20205;-83
2022/01/02 15:33:02;;;;;;;5.30;4.15;;;;;;;;;;4930501;29;20225;-86
2022/01/02 15:35:31;;;;;;;3.55;3.25;;;;;;;;;;4939217;29;20201;-87
2022/01/02 15:37:58;;;;;;;2.92;2.72;;;;;;;;;;4939516;29;20566;-85
2022/01/02 15:40:26;;;;;;;2.45;2.15;;;;;;;;;;4926030;29;20213;-84
2022/01/02 15:42:53;;;;;;;2.20;2.00;;;;;;;;;;4925093;29;20232;-84
2022/01/02 15:45:21;;;;;;;2.47;2.28;;;;;;;;;;4954062;29;20205;-85
2022/01/02 15:47:49;;;;;;;2.50;2.30;;;;;;;;;;4944985;29;20191;-85
2022/01/02 15:50:17;;;;;;;3.13;2.83;;;;;;;;;;4928454;29;20206;-85
2022/01/02 15:52:46;;;;;;;2.13;1.92;;;;;;;;;;4939738;29;20234;-83
2022/01/02 15:55:15;;;;;;;2.45;2.17;;;;;;;;;;4938401;29;20210;-83
2022/01/02 15:57:45;;;;;;;3.80;2.63;;;;;;;;;;4939483;29;20197;-83